Latest Weather Observations for Frankston

IDV60901

Issued at 11:51 pm EDT Monday 30 March 2015 (issued every 10 minutes, with the page automatically refreshed every 10 minutes)

About weather observations | Map of Melbourne area stations | Latest observations for Melbourne area | Other Formats
Station Details ID: 086371 Name: FRANKSTON AWS Lat: -38.15 Lon: 145.12 Height: 6.0 m
Data from the previous 72 hours. | See also: Recent months at Frankston
Date/Time
EDT
Tmp

°C
App
Tmp
°C
Dew
Point
°C
Rel
Hum
%
Delta-T

°C
Wind Press
QNH
hPa
Press
MSL
hPa
Rain
since
9 am
mm
Dir
 
Spd
km/h
Gust
km/h
Spd
kts
Gust
kts
30/11:30pm 15.5 15.9 12.6 83 1.6 ESE 2 6 1 3 - - -
30/11:00pm 15.7 16.5 12.6 82 1.7 CALM 0 0 0 0 - - -
30/10:30pm 15.7 16.0 12.3 80 1.9 SE 2 6 1 3 - - -
30/10:00pm 15.8 15.7 12.0 78 2.1 SSE 4 7 2 4 - - -
30/09:30pm 16.2 15.7 12.0 76 2.3 SSE 6 9 3 5 - - -
30/09:00pm 16.5 16.0 11.9 74 2.5 SSE 6 9 3 5 - - -
30/08:30pm 17.1 16.4 12.0 72 2.8 SSE 7 11 4 6 - - -
30/08:00pm 17.5 16.4 11.8 69 3.1 SSE 9 13 5 7 - - -
30/07:30pm 18.3 17.3 10.9 62 4.0 SSE 7 19 4 10 - - -
30/07:00pm 19.0 17.9 10.6 58 4.5 SSE 7 15 4 8 - - -
30/06:30pm 19.9 18.3 10.3 54 5.2 SSE 9 15 5 8 - - -
30/06:00pm 21.0 19.9 10.8 52 5.6 SSE 7 15 4 8 - - -
30/05:30pm 21.2 19.8 11.0 52 5.6 SSE 9 17 5 9 - - -
30/05:00pm 21.1 19.6 12.0 56 5.1 SSW 11 20 6 11 - - -
30/04:30pm 19.1 16.6 12.4 65 3.7 WSW 17 20 9 11 - - -
30/04:00pm 18.9 17.1 12.2 65 3.7 WSW 13 15 7 8 - - -
30/03:30pm 18.3 16.9 12.1 67 3.4 W 11 11 6 6 - - -
30/03:00pm 17.9 16.8 12.1 69 3.2 W 9 9 5 5 - - -
30/02:30pm 17.4 16.3 11.9 70 3.0 W 9 9 5 5 - - -
30/02:00pm 17.1 15.6 11.8 71 2.9 W 11 13 6 7 - - -
30/01:30pm 16.8 15.4 12.3 75 2.5 W 11 13 6 7 - - -
30/01:00pm 16.5 15.5 12.3 76 2.3 W 9 11 5 6 - - -
30/12:30pm 16.6 15.8 11.7 73 2.7 W 7 9 4 5 - - -
30/12:00pm 16.6 15.7 11.5 72 2.8 WNW 7 9 4 5 - - -
30/11:30am 16.4 15.8 11.6 73 2.6 NW 6 7 3 4 - - -
30/11:00am 16.1 15.9 11.9 76 2.3 W 4 6 2 3 - - -
30/10:30am 16.3 17.0 12.3 77 2.2 CALM 0 0 0 0 - - -
30/10:00am 16.2 16.8 12.0 76 2.3 CALM 0 0 0 0 - - -
30/09:30am 15.5 16.1 11.9 79 2.0 CALM 0 0 0 0 - - -
30/08:30am 12.9 12.3 10.4 85 1.3 E 4 7 2 4 - - -
30/08:00am 12.3 11.6 9.9 85 1.2 SE 4 4 2 2 - - -
30/07:30am 11.6 10.6 9.0 84 1.3 SE 4 6 2 3 - - -
30/07:00am 11.4 10.4 8.8 84 1.3 SE 4 6 2 3 - - -
30/06:30am 11.4 9.9 8.4 82 1.5 ESE 6 7 3 4 - - -
30/06:00am 11.7 10.2 8.6 81 1.5 ESE 6 7 3 4 - - -
30/05:30am 11.7 10.2 8.4 80 1.6 ESE 6 6 3 3 - - -
30/05:00am 11.9 10.4 8.4 79 1.7 SE 6 7 3 4 - - -
30/04:30am 12.1 10.9 8.2 77 1.9 SE 4 6 2 3 - - -
30/04:00am 12.8 12.1 8.5 75 2.1 E 2 4 1 2 - - -
30/03:30am 13.4 13.3 9.3 76 2.1 CALM 0 0 0 0 - - -
30/03:00am 13.1 12.5 8.8 75 2.2 ESE 2 4 1 2 - - -
30/02:30am 13.9 12.7 9.5 75 2.3 SE 6 7 3 4 - - -
30/02:00am 14.0 12.9 9.8 76 2.2 ESE 6 9 3 5 - - -
30/01:30am 14.0 12.9 10.0 77 2.1 ESE 6 9 3 5 - - -
30/01:00am 14.0 13.0 10.4 79 1.9 ESE 6 9 3 5 - - -
30/12:30am 14.1 13.2 10.7 80 1.8 ESE 6 9 3 5 - - -
30/12:00am 14.1 13.2 10.7 80 1.8 ESE 6 7 3 4 - - -
 
Date/Time
EDT
Tmp

°C
App
Tmp
°C
Dew
Point
°C
Rel
Hum
%
Delta-T

°C
Wind Press
QNH
hPa
Press
MSL
hPa
Rain
since
9 am
mm
Dir
 
Spd
km/h
Gust
km/h
Spd
kts
Gust
kts
29/11:30pm 13.9 13.2 10.1 78 2.0 SE 4 4 2 2 - - -
29/11:00pm 14.5 14.6 10.3 76 2.2 CALM 0 0 0 0 - - -
29/10:30pm 14.7 14.8 10.3 75 2.3 CALM 0 2 0 1 - - -
29/10:00pm 15.1 14.5 10.3 73 2.5 ESE 4 7 2 4 - - -
29/09:30pm 15.6 15.1 10.6 72 2.6 ESE 4 6 2 3 - - -
29/09:00pm 15.8 15.3 10.6 71 2.8 SSE 4 9 2 5 - - -
29/08:30pm 16.1 15.1 10.4 69 3.0 SSE 6 9 3 5 - - -
29/08:00pm 16.5 15.2 9.9 65 3.5 S 7 15 4 8 - - -
29/07:30pm 17.2 15.4 9.4 60 4.1 S 9 15 5 8 - - -
29/07:00pm 18.3 15.6 8.8 54 4.9 SSE 13 19 7 10 - - -
29/06:30pm 19.3 17.1 9.2 52 5.3 SSE 11 19 6 10 - - -
29/06:00pm 20.3 18.5 9.5 50 5.7 SSE 9 17 5 9 - - -
29/05:30pm 20.4 17.7 10.5 53 5.4 WSW 15 17 8 9 - - -
29/05:00pm 19.4 16.9 10.9 58 4.6 WSW 15 19 8 10 - - -
29/04:30pm 18.9 16.1 11.5 62 4.1 WSW 17 19 9 10 - - -
29/04:00pm 18.7 15.8 11.0 61 4.2 WSW 17 20 9 11 - - -
29/03:30pm 18.2 15.3 11.0 63 3.9 WSW 17 19 9 10 - - -
29/03:00pm 17.9 16.1 10.8 63 3.8 W 11 13 6 7 - - -
29/02:30pm 17.2 15.3 10.6 65 3.5 W 11 15 6 8 - - -
29/02:00pm 17.2 15.7 10.6 65 3.5 WSW 9 11 5 6 - - -
29/01:30pm 16.6 15.5 10.5 67 3.2 WSW 7 11 4 6 - - -
29/01:00pm 16.5 14.8 9.9 65 3.5 W 9 13 5 7 - - -
29/12:30pm 16.5 14.1 9.9 65 3.5 WNW 13 15 7 8 - - -
29/12:00pm 16.5 13.9 9.2 62 3.8 NW 13 17 7 9 - - -
29/11:30am 16.5 13.7 10.1 66 3.4 NW 15 17 8 9 - - -
29/11:00am 16.3 14.8 10.6 69 3.0 NNW 9 13 5 7 - - -
29/10:30am 15.0 14.6 11.0 77 2.1 NNW 4 6 2 3 - - -
29/10:00am 13.8 13.3 10.6 81 1.7 N 4 6 2 3 - - -
29/09:30am 12.7 11.6 9.9 83 1.4 NNE 6 6 3 3 - - -
29/09:00am 12.2 11.4 9.8 85 1.2 NE 4 6 2 3 - - -
29/08:30am 11.4 10.2 9.5 88 1.0 NE 6 9 3 5 - - -
29/08:00am 10.4 8.9 8.5 88 0.9 E 6 9 3 5 - - -
29/07:30am 9.8 8.6 7.9 88 0.9 ESE 4 6 2 3 - - -
29/07:00am 10.4 10.1 8.5 88 0.9 CALM 0 4 0 2 - - -
29/06:30am 10.4 9.3 8.5 88 0.9 ESE 4 6 2 3 - - -
29/06:00am 10.8 9.4 8.9 88 0.9 E 6 7 3 4 - - -
29/05:30am 10.5 9.4 8.6 88 0.9 E 4 7 2 4 - - -
29/05:00am 10.7 9.7 8.8 88 0.9 E 4 6 2 3 - - -
29/04:30am 10.8 9.8 8.9 88 0.9 E 4 7 2 4 - - -
29/04:00am 11.0 10.1 9.1 88 0.9 E 4 6 2 3 - - -
29/03:30am 10.9 9.9 9.0 88 0.9 E 4 6 2 3 - - -
29/03:00am 10.9 9.5 8.8 87 1.0 ESE 6 11 3 6 - - -
29/02:30am 10.9 9.5 8.7 86 1.1 ESE 6 9 3 5 - - -
29/02:00am 11.0 9.5 8.6 85 1.2 ESE 6 7 3 4 - - -
29/01:30am 11.1 10.0 8.3 83 1.4 ESE 4 7 2 4 - - -
29/01:00am 12.3 10.8 9.1 81 1.6 SE 7 9 4 5 - - -
29/12:30am 13.0 11.2 9.6 80 1.7 SSE 9 9 5 5 - - -
29/12:00am 13.2 11.5 9.8 80 1.7 SSE 9 11 5 6 - - -
 
Date/Time
EDT
Tmp

°C
App
Tmp
°C
Dew
Point
°C
Rel
Hum
%
Delta-T

°C
Wind Press
QNH
hPa
Press
MSL
hPa
Rain
since
9 am
mm
Dir
 
Spd
km/h
Gust
km/h
Spd
kts
Gust
kts
28/11:30pm 13.3 11.7 10.1 81 1.7 SSE 9 11 5 6 - - -
28/11:00pm 13.0 11.7 10.0 82 1.5 SSE 7 9 4 5 - - -
28/10:30pm 13.0 11.9 9.8 81 1.6 SE 6 7 3 4 - - -
28/10:00pm 13.3 12.1 9.5 78 1.9 SSE 6 7 3 4 - - -
28/09:30pm 13.5 12.6 9.2 75 2.2 SE 4 6 2 3 - - -
28/09:00pm 13.9 13.0 9.1 73 2.4 SE 4 6 2 3 - - -
28/08:30pm 14.3 13.4 9.3 72 2.6 SSE 4 6 2 3 - - -
28/08:00pm 15.2 14.8 9.6 69 2.9 SE 2 4 1 2 - - -
28/07:30pm 15.9 14.9 8.9 63 3.6 S 4 6 2 3 - - -
28/07:00pm 16.4 14.3 9.6 64 3.5 WSW 11 13 6 7 - - -
28/06:30pm 16.3 14.7 8.8 61 3.8 W 7 11 4 6 - - -
28/06:00pm 16.6 15.0 8.1 57 4.3 W 6 9 3 5 - - -
28/05:30pm 16.9 15.6 7.5 54 4.7 NNW 4 4 2 2 - - -
28/05:00pm 16.6 15.3 7.8 56 4.4 NW 4 4 2 2 - - -
28/04:30pm 16.5 16.0 9.2 62 3.8 W 2 4 1 2 - - -
28/04:00pm 16.0 15.2 9.7 66 3.3 W 4 6 2 3 - - -
28/03:30pm 15.5 14.4 10.1 70 2.8 W 6 7 3 4 - - -
28/03:00pm 15.4 14.3 10.0 70 2.8 W 6 7 3 4 - - -
28/02:30pm 15.2 13.9 10.0 71 2.7 NW 7 11 4 6 - - -
28/02:00pm 14.9 15.1 10.7 76 2.2 CALM 0 4 0 2 - - -
28/01:30pm 14.4 14.6 10.6 78 2.0 CALM 0 0 0 0 - - -
28/01:00pm 14.3 13.8 10.7 79 1.9 SW 4 6 2 3 - - -
28/12:30pm 14.1 13.2 10.7 80 1.8 WNW 6 9 3 5 - - -
28/12:00pm 13.6 11.5 11.1 85 1.3 SW 13 15 7 8 - - -
28/11:30am 13.6 13.3 11.5 87 1.1 NW 4 13 2 7 - - -
28/11:00am 12.8 12.3 10.9 88 1.0 SSW 4 6 2 3 - - -
28/10:30am 12.9 11.1 10.8 87 1.1 SW 11 15 6 8 - - -
28/10:00am 13.1 11.7 11.0 87 1.1 WNW 9 11 5 6 - - -
28/09:30am 13.2 11.9 11.3 88 1.0 WNW 9 15 5 8 - - -
28/09:00am 12.6 10.0 10.7 88 1.0 W 15 17 8 9 - - -
28/08:30am 13.1 10.2 11.0 87 1.1 W 17 20 9 11 - - -
28/08:00am 13.1 9.6 11.0 87 1.1 W 20 22 11 12 - - -
28/07:30am 13.4 10.1 10.8 84 1.4 WSW 19 22 10 12 - - -
28/07:00am 13.6 9.8 11.3 86 1.2 WSW 22 28 12 15 - - -
28/06:30am 13.3 9.7 10.7 84 1.4 W 20 24 11 13 - - -
28/06:00am 13.7 9.5 11.0 84 1.4 WSW 24 28 13 15 - - -
28/05:30am 13.1 11.2 9.0 76 2.1 SW 9 17 5 9 - - -
28/05:00am 13.2 11.6 8.7 74 2.3 S 7 9 4 5 - - -
28/04:30am 13.1 11.5 8.6 74 2.2 S 7 11 4 6 - - -
28/04:00am 13.5 12.1 8.8 73 2.4 S 6 9 3 5 - - -
28/03:30am 14.0 12.5 9.0 72 2.5 SSW 7 13 4 7 - - -
28/03:00am 14.3 12.8 9.1 71 2.6 SSW 7 11 4 6 - - -
28/02:30am 14.5 11.9 9.3 71 2.7 SW 13 15 7 8 - - -
28/02:00am 14.4 11.8 9.4 72 2.6 SW 13 19 7 10 - - -
28/01:30am 14.6 12.1 9.8 73 2.5 SW 13 19 7 10 - - -
28/01:00am 14.6 12.6 10.2 75 2.3 SW 11 15 6 8 - - -
28/12:30am 14.1 13.0 9.9 76 2.2 S 6 9 3 5 - - -
28/12:00am 14.3 12.6 9.9 75 2.3 SSW 9 13 5 7 - - -

Latest Capital City Observations: Canberra | Sydney | Melbourne | Brisbane | Adelaide | Perth | Hobart | Darwin

Other Formats:

Comma delimited format used in spreadsheet applications
http://www.bom.gov.au/fwo/IDV60901/IDV60901.94871.axf

JavaScript Object Notation format (JSON) in row-major order
http://www.bom.gov.au/fwo/IDV60901/IDV60901.94871.json